sensor_id;sensor_type;location;lat;lon;timestamp;P1;durP1;ratioP1;P2;durP2;ratioP2
46014;SDS011;36844;51.898;-0.874;2024-01-16T00:00:21;17.23;;;9.45;;
46014;SDS011;36844;51.898;-0.874;2024-01-16T00:02:47;19.15;;;9.88;;
46014;SDS011;36844;51.898;-0.874;2024-01-16T00:05:12;15.55;;;8.60;;
46014;SDS011;36844;51.898;-0.874;2024-01-16T00:07:38;17.85;;;9.00;;
46014;SDS011;36844;51.898;-0.874;2024-01-16T00:10:06;16.10;;;9.07;;
46014;SDS011;36844;51.898;-0.874;2024-01-16T00:12:32;17.55;;;9.20;;
46014;SDS011;36844;51.898;-0.874;2024-01-16T00:14:58;18.73;;;9.05;;
46014;SDS011;36844;51.898;-0.874;2024-01-16T00:17:23;18.73;;;8.27;;
46014;SDS011;36844;51.898;-0.874;2024-01-16T00:19:49;15.50;;;8.07;;
46014;SDS011;36844;51.898;-0.874;2024-01-16T00:22:14;17.48;;;8.77;;
46014;SDS011;36844;51.898;-0.874;2024-01-16T00:24:40;13.48;;;8.27;;
46014;SDS011;36844;51.898;-0.874;2024-01-16T00:27:05;18.23;;;9.50;;
46014;SDS011;36844;51.898;-0.874;2024-01-16T00:29:30;14.68;;;7.82;;
46014;SDS011;36844;51.898;-0.874;2024-01-16T00:31:56;12.73;;;7.80;;
46014;SDS011;36844;51.898;-0.874;2024-01-16T00:34:21;15.50;;;7.68;;
46014;SDS011;36844;51.898;-0.874;2024-01-16T00:36:47;14.88;;;8.15;;
46014;SDS011;36844;51.898;-0.874;2024-01-16T00:39:12;16.08;;;8.60;;
46014;SDS011;36844;51.898;-0.874;2024-01-16T00:41:38;13.65;;;7.55;;
46014;SDS011;36844;51.898;-0.874;2024-01-16T00:44:04;13.75;;;6.97;;
46014;SDS011;36844;51.898;-0.874;2024-01-16T00:46:29;11.85;;;6.72;;
46014;SDS011;36844;51.898;-0.874;2024-01-16T00:48:55;12.55;;;7.13;;
46014;SDS011;36844;51.898;-0.874;2024-01-16T00:51:20;12.82;;;6.25;;
46014;SDS011;36844;51.898;-0.874;2024-01-16T00:53:46;11.48;;;6.85;;
46014;SDS011;36844;51.898;-0.874;2024-01-16T00:56:11;12.35;;;6.85;;
46014;SDS011;36844;51.898;-0.874;2024-01-16T00:58:37;12.48;;;6.47;;
46014;SDS011;36844;51.898;-0.874;2024-01-16T01:01:03;11.10;;;5.68;;
46014;SDS011;36844;51.898;-0.874;2024-01-16T01:03:28;9.57;;;5.35;;
46014;SDS011;36844;51.898;-0.874;2024-01-16T01:05:54;10.77;;;5.75;;
46014;SDS011;36844;51.898;-0.874;2024-01-16T01:08:20;14.38;;;6.00;;
46014;SDS011;36844;51.898;-0.874;2024-01-16T01:10:45;12.68;;;6.85;;
46014;SDS011;36844;51.898;-0.874;2024-01-16T01:13:10;11.77;;;5.38;;
46014;SDS011;36844;51.898;-0.874;2024-01-16T01:15:36;11.57;;;6.10;;
46014;SDS011;36844;51.898;-0.874;2024-01-16T01:18:01;9.23;;;5.32;;
46014;SDS011;36844;51.898;-0.874;2024-01-16T01:20:26;12.27;;;5.65;;
46014;SDS011;36844;51.898;-0.874;2024-01-16T01:22:52;9.85;;;5.13;;
46014;SDS011;36844;51.898;-0.874;2024-01-16T01:25:17;9.02;;;5.35;;
46014;SDS011;36844;51.898;-0.874;2024-01-16T01:27:42;11.75;;;5.88;;
46014;SDS011;36844;51.898;-0.874;2024-01-16T01:30:08;10.43;;;5.80;;
46014;SDS011;36844;51.898;-0.874;2024-01-16T01:32:38;9.43;;;5.05;;
46014;SDS011;36844;51.898;-0.874;2024-01-16T01:35:04;12.25;;;4.95;;
46014;SDS011;36844;51.898;-0.874;2024-01-16T01:37:29;10.02;;;5.53;;
46014;SDS011;36844;51.898;-0.874;2024-01-16T01:39:55;8.60;;;5.32;;
46014;SDS011;36844;51.898;-0.874;2024-01-16T01:42:20;9.98;;;5.60;;
46014;SDS011;36844;51.898;-0.874;2024-01-16T01:44:45;8.70;;;5.50;;
46014;SDS011;36844;51.898;-0.874;2024-01-16T01:47:11;10.52;;;5.50;;
46014;SDS011;36844;51.898;-0.874;2024-01-16T01:49:36;8.88;;;5.10;;
46014;SDS011;36844;51.898;-0.874;2024-01-16T01:52:03;8.77;;;4.85;;
46014;SDS011;36844;51.898;-0.874;2024-01-16T01:54:29;9.18;;;5.10;;
46014;SDS011;36844;51.898;-0.874;2024-01-16T01:56:56;9.30;;;5.40;;
46014;SDS011;36844;51.898;-0.874;2024-01-16T01:59:21;9.13;;;5.25;;
46014;SDS011;36844;51.898;-0.874;2024-01-16T02:01:48;10.15;;;5.15;;
46014;SDS011;36844;51.898;-0.874;2024-01-16T02:04:17;7.88;;;4.57;;
46014;SDS011;36844;51.898;-0.874;2024-01-16T02:06:44;11.13;;;4.93;;
46014;SDS011;36844;51.898;-0.874;2024-01-16T02:09:09;6.95;;;4.03;;
46014;SDS011;36844;51.898;-0.874;2024-01-16T02:11:38;9.07;;;4.72;;
46014;SDS011;36844;51.898;-0.874;2024-01-16T02:14:03;9.77;;;4.60;;
46014;SDS011;36844;51.898;-0.874;2024-01-16T02:16:34;9.10;;;4.57;;
46014;SDS011;36844;51.898;-0.874;2024-01-16T02:19:03;8.23;;;4.50;;
46014;SDS011;36844;51.898;-0.874;2024-01-16T02:21:31;8.18;;;4.30;;
46014;SDS011;36844;51.898;-0.874;2024-01-16T02:24:09;6.25;;;3.90;;
46014;SDS011;36844;51.898;-0.874;2024-01-16T02:26:36;6.30;;;3.75;;
46014;SDS011;36844;51.898;-0.874;2024-01-16T02:29:02;5.65;;;3.70;;
46014;SDS011;36844;51.898;-0.874;2024-01-16T02:31:29;6.55;;;3.83;;
46014;SDS011;36844;51.898;-0.874;2024-01-16T02:33:55;7.97;;;4.40;;
46014;SDS011;36844;51.898;-0.874;2024-01-16T02:36:20;7.97;;;4.25;;
46014;SDS011;36844;51.898;-0.874;2024-01-16T02:38:45;6.78;;;3.95;;
46014;SDS011;36844;51.898;-0.874;2024-01-16T02:41:13;5.95;;;3.40;;
46014;SDS011;36844;51.898;-0.874;2024-01-16T02:43:39;7.00;;;4.05;;
46014;SDS011;36844;51.898;-0.874;2024-01-16T02:46:04;8.27;;;3.92;;
46014;SDS011;36844;51.898;-0.874;2024-01-16T02:48:29;6.07;;;3.58;;
46014;SDS011;36844;51.898;-0.874;2024-01-16T02:50:55;5.88;;;3.50;;
46014;SDS011;36844;51.898;-0.874;2024-01-16T02:53:20;5.53;;;3.35;;
46014;SDS011;36844;51.898;-0.874;2024-01-16T02:55:46;6.47;;;3.95;;
46014;SDS011;36844;51.898;-0.874;2024-01-16T02:58:12;7.47;;;3.45;;
46014;SDS011;36844;51.898;-0.874;2024-01-16T03:00:37;6.93;;;3.85;;
46014;SDS011;36844;51.898;-0.874;2024-01-16T03:03:02;6.00;;;3.42;;
46014;SDS011;36844;51.898;-0.874;2024-01-16T03:05:28;7.43;;;3.50;;
46014;SDS011;36844;51.898;-0.874;2024-01-16T03:07:53;4.47;;;3.30;;
46014;SDS011;36844;51.898;-0.874;2024-01-16T03:10:19;6.03;;;3.63;;
46014;SDS011;36844;51.898;-0.874;2024-01-16T03:12:44;4.90;;;2.97;;
46014;SDS011;36844;51.898;-0.874;2024-01-16T03:15:09;5.47;;;3.15;;
46014;SDS011;36844;51.898;-0.874;2024-01-16T03:17:35;6.88;;;3.55;;
46014;SDS011;36844;51.898;-0.874;2024-01-16T03:20:00;6.15;;;3.85;;
46014;SDS011;36844;51.898;-0.874;2024-01-16T03:22:28;5.40;;;3.28;;
46014;SDS011;36844;51.898;-0.874;2024-01-16T03:24:53;4.32;;;2.95;;
46014;SDS011;36844;51.898;-0.874;2024-01-16T03:27:18;6.13;;;3.00;;
46014;SDS011;36844;51.898;-0.874;2024-01-16T03:29:44;6.40;;;3.30;;
46014;SDS011;36844;51.898;-0.874;2024-01-16T03:32:10;5.93;;;2.83;;
46014;SDS011;36844;51.898;-0.874;2024-01-16T03:34:35;7.22;;;3.15;;
46014;SDS011;36844;51.898;-0.874;2024-01-16T03:37:01;4.03;;;2.50;;
46014;SDS011;36844;51.898;-0.874;2024-01-16T03:39:26;4.63;;;2.72;;
46014;SDS011;36844;51.898;-0.874;2024-01-16T03:41:51;4.63;;;2.90;;
46014;SDS011;36844;51.898;-0.874;2024-01-16T03:44:17;5.22;;;2.78;;
46014;SDS011;36844;51.898;-0.874;2024-01-16T03:46:42;3.60;;;2.35;;
46014;SDS011;36844;51.898;-0.874;2024-01-16T03:49:08;5.78;;;3.53;;
46014;SDS011;36844;51.898;-0.874;2024-01-16T03:51:33;4.68;;;2.90;;
46014;SDS011;36844;51.898;-0.874;2024-01-16T03:53:58;7.47;;;3.25;;
46014;SDS011;36844;51.898;-0.874;2024-01-16T03:56:23;4.28;;;2.70;;
46014;SDS011;36844;51.898;-0.874;2024-01-16T03:58:49;4.88;;;2.75;;
46014;SDS011;36844;51.898;-0.874;2024-01-16T04:01:14;6.18;;;3.28;;
46014;SDS011;36844;51.898;-0.874;2024-01-16T04:03:39;5.78;;;2.88;;
46014;SDS011;36844;51.898;-0.874;2024-01-16T04:06:17;4.05;;;2.60;;
46014;SDS011;36844;51.898;-0.874;2024-01-16T04:08:43;4.05;;;2.53;;
46014;SDS011;36844;51.898;-0.874;2024-01-16T04:11:12;4.30;;;2.58;;
46014;SDS011;36844;51.898;-0.874;2024-01-16T04:13:38;4.80;;;2.67;;
46014;SDS011;36844;51.898;-0.874;2024-01-16T04:16:04;6.88;;;3.28;;
46014;SDS011;36844;51.898;-0.874;2024-01-16T04:18:29;5.90;;;3.10;;
46014;SDS011;36844;51.898;-0.874;2024-01-16T04:20:54;5.10;;;2.20;;
46014;SDS011;36844;51.898;-0.874;2024-01-16T04:23:20;3.42;;;2.30;;
46014;SDS011;36844;51.898;-0.874;2024-01-16T04:25:45;9.07;;;2.80;;
46014;SDS011;36844;51.898;-0.874;2024-01-16T04:28:10;6.25;;;3.15;;
46014;SDS011;36844;51.898;-0.874;2024-01-16T04:30:36;3.42;;;2.13;;
46014;SDS011;36844;51.898;-0.874;2024-01-16T04:33:02;4.47;;;2.42;;
46014;SDS011;36844;51.898;-0.874;2024-01-16T04:35:28;6.88;;;3.00;;
46014;SDS011;36844;51.898;-0.874;2024-01-16T04:37:54;5.10;;;2.53;;
46014;SDS011;36844;51.898;-0.874;2024-01-16T04:40:19;4.00;;;2.28;;
46014;SDS011;36844;51.898;-0.874;2024-01-16T04:42:44;3.63;;;2.20;;
46014;SDS011;36844;51.898;-0.874;2024-01-16T04:45:09;5.05;;;2.42;;
46014;SDS011;36844;51.898;-0.874;2024-01-16T04:47:35;4.35;;;2.90;;
46014;SDS011;36844;51.898;-0.874;2024-01-16T04:50:00;3.35;;;2.10;;
46014;SDS011;36844;51.898;-0.874;2024-01-16T04:52:25;3.97;;;2.63;;
46014;SDS011;36844;51.898;-0.874;2024-01-16T04:54:51;4.90;;;3.38;;
46014;SDS011;36844;51.898;-0.874;2024-01-16T04:57:17;3.65;;;2.13;;
46014;SDS011;36844;51.898;-0.874;2024-01-16T04:59:42;2.60;;;2.00;;
46014;SDS011;36844;51.898;-0.874;2024-01-16T05:02:08;4.90;;;2.63;;
46014;SDS011;36844;51.898;-0.874;2024-01-16T05:04:36;4.47;;;2.10;;
46014;SDS011;36844;51.898;-0.874;2024-01-16T05:07:02;5.43;;;3.33;;
46014;SDS011;36844;51.898;-0.874;2024-01-16T05:09:28;3.28;;;1.80;;
46014;SDS011;36844;51.898;-0.874;2024-01-16T05:11:53;5.82;;;2.22;;
46014;SDS011;36844;51.898;-0.874;2024-01-16T05:14:19;4.07;;;2.47;;
46014;SDS011;36844;51.898;-0.874;2024-01-16T05:16:47;2.55;;;1.80;;
46014;SDS011;36844;51.898;-0.874;2024-01-16T05:19:12;3.53;;;2.40;;
46014;SDS011;36844;51.898;-0.874;2024-01-16T05:21:40;4.30;;;2.28;;
46014;SDS011;36844;51.898;-0.874;2024-01-16T05:24:05;3.33;;;2.15;;
46014;SDS011;36844;51.898;-0.874;2024-01-16T05:26:31;4.57;;;2.22;;
46014;SDS011;36844;51.898;-0.874;2024-01-16T05:28:56;2.83;;;2.05;;
46014;SDS011;36844;51.898;-0.874;2024-01-16T05:31:22;2.67;;;1.90;;
46014;SDS011;36844;51.898;-0.874;2024-01-16T05:33:47;4.28;;;2.17;;
46014;SDS011;36844;51.898;-0.874;2024-01-16T05:36:12;4.90;;;2.38;;
46014;SDS011;36844;51.898;-0.874;2024-01-16T05:38:37;3.95;;;1.90;;
46014;SDS011;36844;51.898;-0.874;2024-01-16T05:41:03;2.42;;;1.77;;
46014;SDS011;36844;51.898;-0.874;2024-01-16T05:43:29;4.20;;;1.95;;
46014;SDS011;36844;51.898;-0.874;2024-01-16T05:45:54;2.83;;;1.90;;
46014;SDS011;36844;51.898;-0.874;2024-01-16T05:48:20;4.07;;;2.38;;
46014;SDS011;36844;51.898;-0.874;2024-01-16T05:50:45;6.70;;;1.95;;
46014;SDS011;36844;51.898;-0.874;2024-01-16T05:53:10;2.35;;;1.83;;
46014;SDS011;36844;51.898;-0.874;2024-01-16T05:55:36;3.38;;;2.00;;
46014;SDS011;36844;51.898;-0.874;2024-01-16T05:58:02;3.45;;;2.13;;
46014;SDS011;36844;51.898;-0.874;2024-01-16T06:00:27;3.22;;;2.00;;
46014;SDS011;36844;51.898;-0.874;2024-01-16T06:02:52;3.42;;;1.92;;
46014;SDS011;36844;51.898;-0.874;2024-01-16T06:05:18;3.47;;;1.92;;
46014;SDS011;36844;51.898;-0.874;2024-01-16T06:07:43;5.38;;;2.15;;
46014;SDS011;36844;51.898;-0.874;2024-01-16T06:10:11;3.72;;;2.05;;
46014;SDS011;36844;51.898;-0.874;2024-01-16T06:12:37;3.35;;;1.88;;
46014;SDS011;36844;51.898;-0.874;2024-01-16T06:15:03;5.57;;;1.88;;
46014;SDS011;36844;51.898;-0.874;2024-01-16T06:17:28;3.08;;;1.88;;
46014;SDS011;36844;51.898;-0.874;2024-01-16T06:19:53;2.95;;;1.98;;
46014;SDS011;36844;51.898;-0.874;2024-01-16T06:22:19;3.03;;;2.33;;
46014;SDS011;36844;51.898;-0.874;2024-01-16T06:24:44;3.22;;;2.00;;
46014;SDS011;36844;51.898;-0.874;2024-01-16T06:27:09;2.30;;;1.80;;
46014;SDS011;36844;51.898;-0.874;2024-01-16T06:29:35;2.72;;;1.60;;
46014;SDS011;36844;51.898;-0.874;2024-01-16T06:32:00;3.65;;;1.88;;
46014;SDS011;36844;51.898;-0.874;2024-01-16T06:34:26;2.63;;;1.77;;
46014;SDS011;36844;51.898;-0.874;2024-01-16T06:36:52;4.00;;;1.70;;
46014;SDS011;36844;51.898;-0.874;2024-01-16T06:39:17;2.92;;;1.95;;
46014;SDS011;36844;51.898;-0.874;2024-01-16T06:41:43;2.25;;;1.65;;
46014;SDS011;36844;51.898;-0.874;2024-01-16T06:44:08;2.58;;;1.73;;
46014;SDS011;36844;51.898;-0.874;2024-01-16T06:46:33;2.97;;;2.35;;
46014;SDS011;36844;51.898;-0.874;2024-01-16T06:48:59;3.70;;;1.80;;
46014;SDS011;36844;51.898;-0.874;2024-01-16T06:51:25;2.95;;;1.83;;
46014;SDS011;36844;51.898;-0.874;2024-01-16T06:53:50;2.88;;;1.70;;
46014;SDS011;36844;51.898;-0.874;2024-01-16T06:56:16;2.33;;;1.58;;
46014;SDS011;36844;51.898;-0.874;2024-01-16T06:58:41;3.05;;;1.85;;
46014;SDS011;36844;51.898;-0.874;2024-01-16T07:01:08;2.47;;;1.52;;
46014;SDS011;36844;51.898;-0.874;2024-01-16T07:03:34;2.08;;;1.67;;
46014;SDS011;36844;51.898;-0.874;2024-01-16T07:05:59;3.17;;;1.88;;
46014;SDS011;36844;51.898;-0.874;2024-01-16T07:08:24;3.50;;;1.67;;
46014;SDS011;36844;51.898;-0.874;2024-01-16T07:10:50;3.05;;;1.33;;
46014;SDS011;36844;51.898;-0.874;2024-01-16T07:13:15;2.67;;;1.50;;
46014;SDS011;36844;51.898;-0.874;2024-01-16T07:15:41;2.03;;;1.48;;
46014;SDS011;36844;51.898;-0.874;2024-01-16T07:18:06;2.95;;;1.98;;
46014;SDS011;36844;51.898;-0.874;2024-01-16T07:20:32;2.17;;;1.52;;
46014;SDS011;36844;51.898;-0.874;2024-01-16T07:22:57;3.35;;;1.92;;
46014;SDS011;36844;51.898;-0.874;2024-01-16T07:25:22;2.08;;;1.70;;
46014;SDS011;36844;51.898;-0.874;2024-01-16T07:27:48;1.98;;;1.05;;
46014;SDS011;36844;51.898;-0.874;2024-01-16T07:30:14;2.30;;;1.60;;
46014;SDS011;36844;51.898;-0.874;2024-01-16T07:32:40;2.20;;;1.65;;
46014;SDS011;36844;51.898;-0.874;2024-01-16T07:35:05;1.70;;;1.30;;
46014;SDS011;36844;51.898;-0.874;2024-01-16T07:37:31;2.38;;;1.10;;
46014;SDS011;36844;51.898;-0.874;2024-01-16T07:39:56;2.42;;;1.48;;
46014;SDS011;36844;51.898;-0.874;2024-01-16T07:42:21;2.35;;;1.48;;
46014;SDS011;36844;51.898;-0.874;2024-01-16T07:44:47;2.53;;;1.10;;
46014;SDS011;36844;51.898;-0.874;2024-01-16T07:47:12;11.85;;;1.90;;
46014;SDS011;36844;51.898;-0.874;2024-01-16T07:49:37;1.15;;;1.00;;
46014;SDS011;36844;51.898;-0.874;2024-01-16T07:52:03;2.75;;;1.63;;
46014;SDS011;36844;51.898;-0.874;2024-01-16T07:54:28;2.15;;;1.27;;
46014;SDS011;36844;51.898;-0.874;2024-01-16T07:56:54;2.33;;;1.30;;
46014;SDS011;36844;51.898;-0.874;2024-01-16T07:59:19;1.65;;;1.05;;
46014;SDS011;36844;51.898;-0.874;2024-01-16T08:01:44;2.88;;;1.63;;
46014;SDS011;36844;51.898;-0.874;2024-01-16T08:04:10;1.92;;;1.00;;
46014;SDS011;36844;51.898;-0.874;2024-01-16T08:06:36;2.22;;;1.40;;
46014;SDS011;36844;51.898;-0.874;2024-01-16T08:09:01;3.25;;;1.20;;
46014;SDS011;36844;51.898;-0.874;2024-01-16T08:11:27;2.42;;;1.17;;
46014;SDS011;36844;51.898;-0.874;2024-01-16T08:13:52;2.42;;;1.60;;
46014;SDS011;36844;51.898;-0.874;2024-01-16T08:16:17;2.47;;;1.17;;
46014;SDS011;36844;51.898;-0.874;2024-01-16T08:18:43;3.40;;;1.83;;
46014;SDS011;36844;51.898;-0.874;2024-01-16T08:21:08;3.90;;;1.13;;
46014;SDS011;36844;51.898;-0.874;2024-01-16T08:23:34;2.08;;;1.30;;
46014;SDS011;36844;51.898;-0.874;2024-01-16T08:25:59;3.15;;;1.70;;
46014;SDS011;36844;51.898;-0.874;2024-01-16T08:28:26;0.90;;;0.68;;
46014;SDS011;36844;51.898;-0.874;2024-01-16T08:30:51;3.10;;;1.20;;
46014;SDS011;36844;51.898;-0.874;2024-01-16T08:33:16;3.30;;;2.03;;
46014;SDS011;36844;51.898;-0.874;2024-01-16T08:35:42;1.83;;;1.33;;
46014;SDS011;36844;51.898;-0.874;2024-01-16T08:38:07;2.63;;;1.13;;
46014;SDS011;36844;51.898;-0.874;2024-01-16T08:40:32;4.32;;;1.10;;
46014;SDS011;36844;51.898;-0.874;2024-01-16T08:42:58;2.22;;;1.30;;
46014;SDS011;36844;51.898;-0.874;2024-01-16T08:45:23;2.28;;;1.20;;
46014;SDS011;36844;51.898;-0.874;2024-01-16T08:47:50;2.42;;;1.13;;
46014;SDS011;36844;51.898;-0.874;2024-01-16T08:50:16;1.90;;;1.27;;
46014;SDS011;36844;51.898;-0.874;2024-01-16T08:52:41;2.97;;;1.65;;
46014;SDS011;36844;51.898;-0.874;2024-01-16T08:55:07;1.65;;;1.15;;
46014;SDS011;36844;51.898;-0.874;2024-01-16T08:57:34;2.00;;;1.05;;
46014;SDS011;36844;51.898;-0.874;2024-01-16T08:59:59;2.72;;;1.30;;
46014;SDS011;36844;51.898;-0.874;2024-01-16T09:02:25;2.33;;;1.30;;
46014;SDS011;36844;51.898;-0.874;2024-01-16T09:04:53;1.58;;;0.95;;
46014;SDS011;36844;51.898;-0.874;2024-01-16T09:07:19;1.90;;;1.10;;
46014;SDS011;36844;51.898;-0.874;2024-01-16T09:09:44;1.80;;;1.10;;
46014;SDS011;36844;51.898;-0.874;2024-01-16T09:12:10;3.08;;;0.95;;
46014;SDS011;36844;51.898;-0.874;2024-01-16T09:14:35;1.67;;;1.20;;
46014;SDS011;36844;51.898;-0.874;2024-01-16T09:17:00;1.70;;;0.82;;
46014;SDS011;36844;51.898;-0.874;2024-01-16T09:19:26;2.15;;;1.17;;
46014;SDS011;36844;51.898;-0.874;2024-01-16T09:21:51;1.20;;;1.05;;
46014;SDS011;36844;51.898;-0.874;2024-01-16T09:24:17;2.25;;;1.38;;
46014;SDS011;36844;51.898;-0.874;2024-01-16T09:26:43;1.08;;;0.82;;
46014;SDS011;36844;51.898;-0.874;2024-01-16T09:29:09;1.80;;;1.10;;
46014;SDS011;36844;51.898;-0.874;2024-01-16T09:31:35;1.42;;;0.98;;
46014;SDS011;36844;51.898;-0.874;2024-01-16T09:34:00;1.92;;;1.30;;
46014;SDS011;36844;51.898;-0.874;2024-01-16T09:36:26;1.20;;;0.77;;
46014;SDS011;36844;51.898;-0.874;2024-01-16T09:38:51;1.20;;;1.00;;
46014;SDS011;36844;51.898;-0.874;2024-01-16T09:41:17;1.40;;;0.98;;
46014;SDS011;36844;51.898;-0.874;2024-01-16T09:43:42;1.95;;;1.10;;
46014;SDS011;36844;51.898;-0.874;2024-01-16T09:46:09;1.25;;;0.95;;
46014;SDS011;36844;51.898;-0.874;2024-01-16T09:48:36;4.97;;;1.13;;
46014;SDS011;36844;51.898;-0.874;2024-01-16T09:51:01;2.35;;;1.00;;
46014;SDS011;36844;51.898;-0.874;2024-01-16T09:53:28;3.40;;;1.25;;
46014;SDS011;36844;51.898;-0.874;2024-01-16T09:55:54;4.88;;;1.55;;
46014;SDS011;36844;51.898;-0.874;2024-01-16T09:58:21;6.75;;;2.28;;
46014;SDS011;36844;51.898;-0.874;2024-01-16T10:00:47;9.02;;;2.00;;
46014;SDS011;36844;51.898;-0.874;2024-01-16T10:03:13;4.95;;;2.33;;
46014;SDS011;36844;51.898;-0.874;2024-01-16T10:05:42;10.65;;;2.45;;
46014;SDS011;36844;51.898;-0.874;2024-01-16T10:08:08;7.85;;;2.90;;
46014;SDS011;36844;51.898;-0.874;2024-01-16T10:10:33;4.05;;;2.20;;
46014;SDS011;36844;51.898;-0.874;2024-01-16T10:12:59;5.03;;;2.35;;
46014;SDS011;36844;51.898;-0.874;2024-01-16T10:15:25;9.80;;;3.15;;
46014;SDS011;36844;51.898;-0.874;2024-01-16T10:17:50;6.20;;;2.97;;
46014;SDS011;36844;51.898;-0.874;2024-01-16T10:20:15;6.88;;;2.00;;
46014;SDS011;36844;51.898;-0.874;2024-01-16T10:22:55;10.63;;;2.67;;
46014;SDS011;36844;51.898;-0.874;2024-01-16T10:25:21;6.72;;;2.30;;
46014;SDS011;36844;51.898;-0.874;2024-01-16T10:27:47;8.73;;;2.65;;
46014;SDS011;36844;51.898;-0.874;2024-01-16T10:30:13;4.65;;;2.22;;
46014;SDS011;36844;51.898;-0.874;2024-01-16T10:32:40;7.03;;;2.00;;
46014;SDS011;36844;51.898;-0.874;2024-01-16T10:35:13;7.85;;;2.90;;
46014;SDS011;36844;51.898;-0.874;2024-01-16T10:37:42;17.27;;;3.03;;
46014;SDS011;36844;51.898;-0.874;2024-01-16T10:40:22;10.02;;;2.47;;
46014;SDS011;36844;51.898;-0.874;2024-01-16T10:43:03;6.72;;;2.40;;
46014;SDS011;36844;51.898;-0.874;2024-01-16T10:45:29;10.95;;;2.42;;
46014;SDS011;36844;51.898;-0.874;2024-01-16T10:48:16;5.20;;;2.00;;
46014;SDS011;36844;51.898;-0.874;2024-01-16T10:50:41;6.45;;;2.20;;
46014;SDS011;36844;51.898;-0.874;2024-01-16T10:53:06;6.30;;;1.92;;
46014;SDS011;36844;51.898;-0.874;2024-01-16T10:55:38;5.05;;;1.80;;
46014;SDS011;36844;51.898;-0.874;2024-01-16T10:58:13;9.00;;;1.98;;
46014;SDS011;36844;51.898;-0.874;2024-01-16T11:00:38;5.05;;;2.00;;
46014;SDS011;36844;51.898;-0.874;2024-01-16T11:03:05;3.28;;;1.83;;
46014;SDS011;36844;51.898;-0.874;2024-01-16T11:05:33;6.70;;;1.60;;
46014;SDS011;36844;51.898;-0.874;2024-01-16T11:07:59;5.13;;;1.45;;
46014;SDS011;36844;51.898;-0.874;2024-01-16T11:10:28;4.53;;;1.65;;
46014;SDS011;36844;51.898;-0.874;2024-01-16T11:12:55;5.25;;;1.70;;
46014;SDS011;36844;51.898;-0.874;2024-01-16T11:15:22;5.38;;;1.83;;
46014;SDS011;36844;51.898;-0.874;2024-01-16T11:17:50;5.63;;;1.95;;
46014;SDS011;36844;51.898;-0.874;2024-01-16T11:20:15;4.28;;;1.65;;
46014;SDS011;36844;51.898;-0.874;2024-01-16T11:22:42;3.22;;;1.70;;
46014;SDS011;36844;51.898;-0.874;2024-01-16T11:25:15;5.65;;;1.55;;
46014;SDS011;36844;51.898;-0.874;2024-01-16T11:27:41;4.25;;;1.75;;
46014;SDS011;36844;51.898;-0.874;2024-01-16T11:30:08;2.72;;;1.27;;
46014;SDS011;36844;51.898;-0.874;2024-01-16T11:32:42;5.93;;;1.65;;
46014;SDS011;36844;51.898;-0.874;2024-01-16T11:35:07;4.22;;;1.33;;
46014;SDS011;36844;51.898;-0.874;2024-01-16T11:37:34;4.03;;;1.98;;
46014;SDS011;36844;51.898;-0.874;2024-01-16T11:40:23;6.22;;;1.60;;
46014;SDS011;36844;51.898;-0.874;2024-01-16T11:42:48;2.63;;;1.30;;
46014;SDS011;36844;51.898;-0.874;2024-01-16T11:48:07;5.45;;;1.27;;
46014;SDS011;36844;51.898;-0.874;2024-01-16T11:50:39;7.55;;;1.98;;
46014;SDS011;36844;51.898;-0.874;2024-01-16T11:53:06;4.43;;;1.58;;
46014;SDS011;36844;51.898;-0.874;2024-01-16T11:55:31;2.30;;;1.52;;
46014;SDS011;36844;51.898;-0.874;2024-01-16T12:01:04;2.83;;;1.10;;
46014;SDS011;36844;51.898;-0.874;2024-01-16T12:03:30;5.28;;;1.58;;
46014;SDS011;36844;51.898;-0.874;2024-01-16T12:05:59;4.70;;;1.20;;
46014;SDS011;36844;51.898;-0.874;2024-01-16T12:08:25;3.53;;;1.35;;
46014;SDS011;36844;51.898;-0.874;2024-01-16T12:10:51;3.78;;;1.30;;
46014;SDS011;36844;51.898;-0.874;2024-01-16T12:13:16;2.30;;;1.23;;
46014;SDS011;36844;51.898;-0.874;2024-01-16T12:15:42;2.92;;;1.20;;
46014;SDS011;36844;51.898;-0.874;2024-01-16T12:18:08;2.45;;;1.52;;
46014;SDS011;36844;51.898;-0.874;2024-01-16T12:20:35;2.05;;;1.10;;
46014;SDS011;36844;51.898;-0.874;2024-01-16T12:23:02;2.97;;;1.20;;
46014;SDS011;36844;51.898;-0.874;2024-01-16T12:25:29;1.85;;;1.25;;
46014;SDS011;36844;51.898;-0.874;2024-01-16T12:30:29;2.95;;;1.40;;
46014;SDS011;36844;51.898;-0.874;2024-01-16T12:35:42;1.77;;;1.20;;
46014;SDS011;36844;51.898;-0.874;2024-01-16T12:38:12;7.50;;;1.75;;
46014;SDS011;36844;51.898;-0.874;2024-01-16T12:40:40;4.32;;;1.30;;
46014;SDS011;36844;51.898;-0.874;2024-01-16T12:43:09;3.58;;;1.50;;
46014;SDS011;36844;51.898;-0.874;2024-01-16T12:45:34;3.90;;;1.33;;
46014;SDS011;36844;51.898;-0.874;2024-01-16T12:48:01;4.60;;;1.48;;
46014;SDS011;36844;51.898;-0.874;2024-01-16T12:50:28;2.45;;;1.50;;
46014;SDS011;36844;51.898;-0.874;2024-01-16T12:53:03;8.23;;;1.83;;
46014;SDS011;36844;51.898;-0.874;2024-01-16T12:55:34;2.60;;;1.60;;
46014;SDS011;36844;51.898;-0.874;2024-01-16T12:58:13;3.65;;;1.48;;
46014;SDS011;36844;51.898;-0.874;2024-01-16T13:00:42;4.30;;;1.98;;
46014;SDS011;36844;51.898;-0.874;2024-01-16T13:03:14;3.00;;;1.38;;
46014;SDS011;36844;51.898;-0.874;2024-01-16T13:05:41;4.93;;;1.25;;
46014;SDS011;36844;51.898;-0.874;2024-01-16T13:08:07;2.42;;;1.30;;
46014;SDS011;36844;51.898;-0.874;2024-01-16T13:10:32;2.30;;;1.17;;
46014;SDS011;36844;51.898;-0.874;2024-01-16T13:13:17;4.90;;;1.42;;
46014;SDS011;36844;51.898;-0.874;2024-01-16T13:15:43;3.90;;;1.20;;
46014;SDS011;36844;51.898;-0.874;2024-01-16T13:20:49;2.88;;;1.50;;
46014;SDS011;36844;51.898;-0.874;2024-01-16T13:23:15;2.78;;;1.30;;
46014;SDS011;36844;51.898;-0.874;2024-01-16T13:25:45;5.85;;;1.92;;
46014;SDS011;36844;51.898;-0.874;2024-01-16T13:28:12;2.38;;;1.10;;
46014;SDS011;36844;51.898;-0.874;2024-01-16T13:30:38;2.75;;;1.20;;
46014;SDS011;36844;51.898;-0.874;2024-01-16T13:33:07;2.53;;;1.60;;
46014;SDS011;36844;51.898;-0.874;2024-01-16T13:35:37;1.58;;;1.20;;
46014;SDS011;36844;51.898;-0.874;2024-01-16T13:38:04;2.20;;;1.17;;
46014;SDS011;36844;51.898;-0.874;2024-01-16T13:40:30;2.72;;;1.63;;
46014;SDS011;36844;51.898;-0.874;2024-01-16T13:42:55;3.05;;;1.27;;
46014;SDS011;36844;51.898;-0.874;2024-01-16T13:45:21;3.58;;;1.42;;
46014;SDS011;36844;51.898;-0.874;2024-01-16T13:47:47;4.43;;;1.25;;
46014;SDS011;36844;51.898;-0.874;2024-01-16T13:50:12;1.83;;;1.33;;
46014;SDS011;36844;51.898;-0.874;2024-01-16T13:52:38;1.90;;;1.23;;
46014;SDS011;36844;51.898;-0.874;2024-01-16T13:55:05;3.20;;;1.75;;
46014;SDS011;36844;51.898;-0.874;2024-01-16T13:57:31;2.60;;;1.70;;
46014;SDS011;36844;51.898;-0.874;2024-01-16T13:59:57;3.08;;;1.30;;
46014;SDS011;36844;51.898;-0.874;2024-01-16T14:02:23;3.25;;;1.17;;
46014;SDS011;36844;51.898;-0.874;2024-01-16T14:04:49;6.45;;;2.15;;
46014;SDS011;36844;51.898;-0.874;2024-01-16T14:07:15;3.40;;;1.40;;
46014;SDS011;36844;51.898;-0.874;2024-01-16T14:09:41;1.90;;;1.05;;
46014;SDS011;36844;51.898;-0.874;2024-01-16T14:12:07;2.72;;;1.40;;
46014;SDS011;36844;51.898;-0.874;2024-01-16T14:14:33;1.33;;;0.93;;
46014;SDS011;36844;51.898;-0.874;2024-01-16T14:16:59;4.97;;;1.48;;
46014;SDS011;36844;51.898;-0.874;2024-01-16T14:19:25;1.65;;;1.10;;
46014;SDS011;36844;51.898;-0.874;2024-01-16T14:21:52;3.53;;;1.17;;
46014;SDS011;36844;51.898;-0.874;2024-01-16T14:24:17;3.15;;;0.88;;
46014;SDS011;36844;51.898;-0.874;2024-01-16T14:26:43;4.00;;;1.15;;
46014;SDS011;36844;51.898;-0.874;2024-01-16T14:29:09;3.35;;;1.02;;
46014;SDS011;36844;51.898;-0.874;2024-01-16T14:31:35;4.00;;;1.30;;
46014;SDS011;36844;51.898;-0.874;2024-01-16T14:34:00;1.63;;;1.08;;
46014;SDS011;36844;51.898;-0.874;2024-01-16T14:36:25;1.88;;;1.10;;
46014;SDS011;36844;51.898;-0.874;2024-01-16T14:38:51;8.23;;;1.23;;
46014;SDS011;36844;51.898;-0.874;2024-01-16T14:41:16;3.33;;;1.00;;